KCUH/CUH METAR and TAF weather

Enter ICAO airport designator
Station Type Date Time Source
KCUH METAR 2022/01/29 10:15 UTC NOAA

KCUH 291015Z AUTO 00000KT 10SM CLR M05/M08 A3027 RMK AO2 T10531081


Station Type Date Time Source
KCUH Decoded METAR 2022/01/29 10:15 UTC NOAA

Cushing, Cushing Municipal Airport, OK, United States (KCUH) 35-56-59N 096-46-22W
Jan 29, 2022 - 05:15 AM EST / 2022.01.29 1015 UTC
Wind: Calm:0
Visibility: 10 mile(s):0
Sky conditions: clear
Temperature: 22.5 F (-5.3 C)
Dew Point: 17.4 F (-8.1 C)
Relative Humidity: 80%
Pressure (altimeter): 30.27 in. Hg (1025 hPa)
ob: KCUH 291015Z AUTO 00000KT 10SM CLR M05/M08 A3027 RMK AO2 T10531081
cycle: 10

Station Type Date Time Source
KCUH TAF UTC NOAA

Error!

Example: see airport list